Jerusalem, Israel
Current Conditions -  °F | °C
As of 1:20 AM on Sunday 21 Dec 2014 (Local Time) from LLBG Reporting Station
Clear Clear  
Wind Chill: 57°   Ceiling: Unl
Heat Index: 57°   Visibility: 6mi
Dew Point: 54°   Wind: 6mph
Humidity: 88%   Direction: 130°SE
Pressure: 30.12"   Gusts: NA
Location:  31.78°N, 35.22°E
Report Text: LLBG 202220Z 13005KT CAVOK 14/12 Q1020 NOSIG RMK FEW080
Loading
Personal Weather Stations






























Interactive Weather Map New forecast layout! Learn more

10-Day Weather Forecast

Advertisements
Track Severe Weather on mobile